sensor_id;sensor_type;location;lat;lon;timestamp;pressure;altitude;pressure_sealevel;temperature;humidity
26978;BME280;56314;48.088;11.642;2022-12-10T00:00:13;94079.28;;;0.38;100.00
26978;BME280;56314;48.088;11.642;2022-12-10T00:02:39;94071.56;;;0.52;100.00
26978;BME280;56314;48.088;11.642;2022-12-10T00:05:05;94075.88;;;0.52;100.00
26978;BME280;56314;48.088;11.642;2022-12-10T00:07:30;94074.59;;;0.44;100.00
26978;BME280;56314;48.088;11.642;2022-12-10T00:09:55;94070.22;;;0.45;100.00
26978;BME280;56314;48.088;11.642;2022-12-10T00:12:21;94074.75;;;0.41;100.00
26978;BME280;56314;48.088;11.642;2022-12-10T00:14:46;94084.75;;;0.48;100.00
26978;BME280;56314;48.088;11.642;2022-12-10T00:17:11;94082.97;;;0.48;100.00
26978;BME280;56314;48.088;11.642;2022-12-10T00:19:36;94074.47;;;0.46;100.00
26978;BME280;56314;48.088;11.642;2022-12-10T00:22:02;94084.16;;;0.42;100.00
26978;BME280;56314;48.088;11.642;2022-12-10T00:24:27;94082.50;;;0.41;100.00
26978;BME280;56314;48.088;11.642;2022-12-10T00:26:52;94077.53;;;0.53;100.00
26978;BME280;56314;48.088;11.642;2022-12-10T00:29:18;94068.50;;;0.45;100.00
26978;BME280;56314;48.088;11.642;2022-12-10T00:31:44;94065.00;;;0.47;100.00
26978;BME280;56314;48.088;11.642;2022-12-10T00:34:10;94069.16;;;0.49;100.00
26978;BME280;56314;48.088;11.642;2022-12-10T00:36:44;94069.69;;;0.54;100.00
26978;BME280;56314;48.088;11.642;2022-12-10T00:39:12;94062.78;;;0.55;100.00
26978;BME280;56314;48.088;11.642;2022-12-10T00:41:37;94076.63;;;0.54;100.00
26978;BME280;56314;48.088;11.642;2022-12-10T00:44:03;94070.81;;;0.50;100.00
26978;BME280;56314;48.088;11.642;2022-12-10T00:46:28;94080.28;;;0.50;100.00
26978;BME280;56314;48.088;11.642;2022-12-10T00:48:54;94079.56;;;0.48;100.00
26978;BME280;56314;48.088;11.642;2022-12-10T00:51:21;94081.41;;;0.45;100.00
26978;BME280;56314;48.088;11.642;2022-12-10T00:53:49;94081.44;;;0.60;100.00
26978;BME280;56314;48.088;11.642;2022-12-10T00:56:16;94086.59;;;0.60;100.00
26978;BME280;56314;48.088;11.642;2022-12-10T00:58:42;94098.94;;;0.55;100.00
26978;BME280;56314;48.088;11.642;2022-12-10T01:03:36;94106.13;;;0.50;100.00
26978;BME280;56314;48.088;11.642;2022-12-10T01:06:28;94106.59;;;0.42;100.00
26978;BME280;56314;48.088;11.642;2022-12-10T01:08:57;94100.41;;;0.44;100.00
26978;BME280;56314;48.088;11.642;2022-12-10T01:11:26;94104.00;;;0.56;100.00
26978;BME280;56314;48.088;11.642;2022-12-10T01:13:52;94107.31;;;0.44;100.00
26978;BME280;56314;48.088;11.642;2022-12-10T01:16:19;94110.63;;;0.46;100.00
26978;BME280;56314;48.088;11.642;2022-12-10T01:18:45;94119.50;;;0.42;100.00
26978;BME280;56314;48.088;11.642;2022-12-10T01:21:14;94105.09;;;0.38;100.00
26978;BME280;56314;48.088;11.642;2022-12-10T01:23:41;94099.50;;;0.45;100.00
26978;BME280;56314;48.088;11.642;2022-12-10T01:26:09;94101.06;;;0.48;100.00
26978;BME280;56314;48.088;11.642;2022-12-10T01:28:37;94098.75;;;0.43;100.00
26978;BME280;56314;48.088;11.642;2022-12-10T01:31:05;94096.50;;;0.37;100.00
26978;BME280;56314;48.088;11.642;2022-12-10T01:33:31;94091.00;;;0.43;100.00
26978;BME280;56314;48.088;11.642;2022-12-10T01:36:02;94102.69;;;0.35;100.00
26978;BME280;56314;48.088;11.642;2022-12-10T01:38:28;94101.94;;;0.33;100.00
26978;BME280;56314;48.088;11.642;2022-12-10T01:40:53;94097.97;;;0.27;100.00
26978;BME280;56314;48.088;11.642;2022-12-10T01:43:19;94101.28;;;0.29;100.00
26978;BME280;56314;48.088;11.642;2022-12-10T01:45:44;94115.22;;;0.26;100.00
26978;BME280;56314;48.088;11.642;2022-12-10T01:48:09;94116.94;;;0.26;100.00
26978;BME280;56314;48.088;11.642;2022-12-10T01:50:35;94122.97;;;0.26;100.00
26978;BME280;56314;48.088;11.642;2022-12-10T01:53:01;94136.63;;;0.28;100.00
26978;BME280;56314;48.088;11.642;2022-12-10T01:55:41;94139.09;;;0.30;100.00
26978;BME280;56314;48.088;11.642;2022-12-10T01:58:07;94133.19;;;0.28;100.00
26978;BME280;56314;48.088;11.642;2022-12-10T02:00:34;94141.31;;;0.22;100.00
26978;BME280;56314;48.088;11.642;2022-12-10T02:03:10;94148.28;;;0.20;100.00
26978;BME280;56314;48.088;11.642;2022-12-10T02:05:44;94137.81;;;0.23;100.00
26978;BME280;56314;48.088;11.642;2022-12-10T02:08:26;94136.69;;;0.27;100.00
26978;BME280;56314;48.088;11.642;2022-12-10T02:13:37;94129.03;;;0.25;100.00
26978;BME280;56314;48.088;11.642;2022-12-10T02:16:41;94129.03;;;0.25;100.00
26978;BME280;56314;48.088;11.642;2022-12-10T02:22:09;94136.22;;;0.20;100.00
26978;BME280;56314;48.088;11.642;2022-12-10T02:24:36;94137.00;;;0.37;100.00
26978;BME280;56314;48.088;11.642;2022-12-10T02:27:16;94125.66;;;0.39;100.00
26978;BME280;56314;48.088;11.642;2022-12-10T02:29:46;94128.50;;;0.35;100.00
26978;BME280;56314;48.088;11.642;2022-12-10T02:32:25;94126.94;;;0.32;100.00
26978;BME280;56314;48.088;11.642;2022-12-10T02:34:57;94122.88;;;0.28;100.00
26978;BME280;56314;48.088;11.642;2022-12-10T02:37:32;94118.88;;;0.22;100.00
26978;BME280;56314;48.088;11.642;2022-12-10T02:40:03;94120.72;;;0.20;100.00
26978;BME280;56314;48.088;11.642;2022-12-10T02:42:30;94118.34;;;0.17;100.00
26978;BME280;56314;48.088;11.642;2022-12-10T02:44:59;94117.31;;;0.20;100.00
26978;BME280;56314;48.088;11.642;2022-12-10T02:47:25;94115.47;;;0.22;100.00
26978;BME280;56314;48.088;11.642;2022-12-10T02:49:53;94120.16;;;0.15;100.00
26978;BME280;56314;48.088;11.642;2022-12-10T02:52:23;94116.31;;;0.22;100.00
26978;BME280;56314;48.088;11.642;2022-12-10T02:54:50;94116.22;;;0.24;100.00
26978;BME280;56314;48.088;11.642;2022-12-10T02:57:29;94110.38;;;0.20;100.00
26978;BME280;56314;48.088;11.642;2022-12-10T03:02:52;94105.00;;;0.09;100.00
26978;BME280;56314;48.088;11.642;2022-12-10T03:05:50;94110.81;;;0.12;100.00
26978;BME280;56314;48.088;11.642;2022-12-10T03:08:23;94105.91;;;0.08;100.00
26978;BME280;56314;48.088;11.642;2022-12-10T03:11:04;94104.34;;;0.05;100.00
26978;BME280;56314;48.088;11.642;2022-12-10T03:13:36;94096.63;;;0.05;100.00
26978;BME280;56314;48.088;11.642;2022-12-10T03:16:04;94094.78;;;0.07;100.00
26978;BME280;56314;48.088;11.642;2022-12-10T03:18:31;94105.00;;;0.09;100.00
26978;BME280;56314;48.088;11.642;2022-12-10T03:21:02;94112.84;;;0.07;100.00
26978;BME280;56314;48.088;11.642;2022-12-10T03:23:30;94103.34;;;0.08;100.00
26978;BME280;56314;48.088;11.642;2022-12-10T03:25:55;94104.75;;;0.13;100.00
26978;BME280;56314;48.088;11.642;2022-12-10T03:28:22;94106.41;;;0.14;100.00
26978;BME280;56314;48.088;11.642;2022-12-10T03:30:48;94102.34;;;0.10;100.00
26978;BME280;56314;48.088;11.642;2022-12-10T03:33:15;94104.84;;;0.12;100.00
26978;BME280;56314;48.088;11.642;2022-12-10T03:35:41;94096.28;;;0.11;100.00
26978;BME280;56314;48.088;11.642;2022-12-10T03:38:08;94098.94;;;0.10;100.00
26978;BME280;56314;48.088;11.642;2022-12-10T03:40:33;94099.94;;;0.07;100.00
26978;BME280;56314;48.088;11.642;2022-12-10T03:42:59;94101.19;;;0.16;100.00
26978;BME280;56314;48.088;11.642;2022-12-10T03:45:24;94101.59;;;0.08;100.00
26978;BME280;56314;48.088;11.642;2022-12-10T03:47:49;94101.78;;;0.05;100.00
26978;BME280;56314;48.088;11.642;2022-12-10T03:50:15;94090.25;;;0.11;100.00
26978;BME280;56314;48.088;11.642;2022-12-10T03:52:44;94100.59;;;0.11;100.00
26978;BME280;56314;48.088;11.642;2022-12-10T03:55:10;94109.34;;;0.08;100.00
26978;BME280;56314;48.088;11.642;2022-12-10T03:57:35;94098.63;;;0.00;100.00
26978;BME280;56314;48.088;11.642;2022-12-10T04:00:02;94090.91;;;0.00;100.00
26978;BME280;56314;48.088;11.642;2022-12-10T04:02:27;94094.47;;;-0.03;100.00
26978;BME280;56314;48.088;11.642;2022-12-10T04:04:53;94098.63;;;0.00;100.00
26978;BME280;56314;48.088;11.642;2022-12-10T04:07:18;94097.53;;;0.04;100.00
26978;BME280;56314;48.088;11.642;2022-12-10T04:09:44;94094.94;;;0.04;100.00
26978;BME280;56314;48.088;11.642;2022-12-10T04:12:09;94096.44;;;0.08;100.00
26978;BME280;56314;48.088;11.642;2022-12-10T04:14:35;94100.84;;;0.06;100.00
26978;BME280;56314;48.088;11.642;2022-12-10T04:17:19;94113.66;;;0.08;100.00
26978;BME280;56314;48.088;11.642;2022-12-10T04:19:44;94108.50;;;0.08;100.00
26978;BME280;56314;48.088;11.642;2022-12-10T04:22:10;94113.00;;;0.04;100.00
26978;BME280;56314;48.088;11.642;2022-12-10T04:24:53;94114.03;;;0.02;100.00
26978;BME280;56314;48.088;11.642;2022-12-10T04:27:51;94111.72;;;-0.03;100.00
26978;BME280;56314;48.088;11.642;2022-12-10T04:30:17;94105.78;;;-0.05;100.00
26978;BME280;56314;48.088;11.642;2022-12-10T04:32:42;94107.53;;;-0.06;100.00
26978;BME280;56314;48.088;11.642;2022-12-10T04:35:08;94103.06;;;-0.02;100.00
26978;BME280;56314;48.088;11.642;2022-12-10T04:37:33;94108.69;;;0.05;100.00
26978;BME280;56314;48.088;11.642;2022-12-10T04:39:58;94101.03;;;0.03;100.00
26978;BME280;56314;48.088;11.642;2022-12-10T04:42:24;94104.63;;;0.01;100.00
26978;BME280;56314;48.088;11.642;2022-12-10T04:44:49;94109.13;;;-0.03;100.00
26978;BME280;56314;48.088;11.642;2022-12-10T04:47:15;94109.63;;;0.04;100.00
26978;BME280;56314;48.088;11.642;2022-12-10T04:49:40;94114.94;;;0.01;100.00
26978;BME280;56314;48.088;11.642;2022-12-10T04:52:07;94122.84;;;-0.03;100.00
26978;BME280;56314;48.088;11.642;2022-12-10T04:54:33;94113.38;;;-0.02;100.00
26978;BME280;56314;48.088;11.642;2022-12-10T04:56:58;94114.19;;;-0.02;100.00
26978;BME280;56314;48.088;11.642;2022-12-10T04:59:24;94115.97;;;-0.02;100.00
26978;BME280;56314;48.088;11.642;2022-12-10T05:01:49;94113.38;;;-0.02;100.00
26978;BME280;56314;48.088;11.642;2022-12-10T05:04:16;94105.19;;;0.06;100.00
26978;BME280;56314;48.088;11.642;2022-12-10T05:06:42;94104.63;;;0.01;100.00
26978;BME280;56314;48.088;11.642;2022-12-10T05:09:10;94110.69;;;-0.01;100.00
26978;BME280;56314;48.088;11.642;2022-12-10T05:11:36;94104.72;;;-0.01;100.00
26978;BME280;56314;48.088;11.642;2022-12-10T05:14:02;94110.84;;;-0.04;100.00
26978;BME280;56314;48.088;11.642;2022-12-10T05:16:29;94112.03;;;-0.09;100.00
26978;BME280;56314;48.088;11.642;2022-12-10T05:18:55;94108.53;;;-0.08;100.00
26978;BME280;56314;48.088;11.642;2022-12-10T05:21:22;94114.63;;;-0.09;100.00
26978;BME280;56314;48.088;11.642;2022-12-10T05:23:50;94109.13;;;-0.03;100.00
26978;BME280;56314;48.088;11.642;2022-12-10T05:26:18;94110.53;;;0.03;100.00
26978;BME280;56314;48.088;11.642;2022-12-10T05:31:19;94113.19;;;0.01;100.00
26978;BME280;56314;48.088;11.642;2022-12-10T05:33:45;94103.59;;;0.03;100.00
26978;BME280;56314;48.088;11.642;2022-12-10T05:36:12;94107.19;;;0.01;100.00
26978;BME280;56314;48.088;11.642;2022-12-10T05:38:38;94113.44;;;-0.04;100.00
26978;BME280;56314;48.088;11.642;2022-12-10T05:41:05;94115.28;;;-0.06;100.00
26978;BME280;56314;48.088;11.642;2022-12-10T05:43:31;94115.97;;;-0.02;100.00
26978;BME280;56314;48.088;11.642;2022-12-10T05:46:04;94121.94;;;-0.02;100.00
26978;BME280;56314;48.088;11.642;2022-12-10T05:48:31;94121.19;;;-0.04;100.00
26978;BME280;56314;48.088;11.642;2022-12-10T05:50:57;94123.00;;;-0.06;100.00
26978;BME280;56314;48.088;11.642;2022-12-10T05:53:23;94119.88;;;-0.11;100.00
26978;BME280;56314;48.088;11.642;2022-12-10T05:55:49;94118.13;;;-0.10;100.00
26978;BME280;56314;48.088;11.642;2022-12-10T05:58:14;94120.88;;;-0.13;100.00
26978;BME280;56314;48.088;11.642;2022-12-10T06:00:40;94125.84;;;-0.10;100.00
26978;BME280;56314;48.088;11.642;2022-12-10T06:03:08;94135.34;;;-0.11;100.00
26978;BME280;56314;48.088;11.642;2022-12-10T06:05:40;94135.25;;;-0.09;100.00
26978;BME280;56314;48.088;11.642;2022-12-10T06:08:06;94138.69;;;-0.09;100.00
26978;BME280;56314;48.088;11.642;2022-12-10T06:10:35;94141.78;;;-0.18;100.00
26978;BME280;56314;48.088;11.642;2022-12-10T06:13:01;94134.97;;;-0.19;100.00
26978;BME280;56314;48.088;11.642;2022-12-10T06:15:27;94140.78;;;-0.16;100.00
26978;BME280;56314;48.088;11.642;2022-12-10T06:17:54;94137.09;;;-0.11;100.00
26978;BME280;56314;48.088;11.642;2022-12-10T06:20:19;94135.44;;;-0.12;100.00
26978;BME280;56314;48.088;11.642;2022-12-10T06:22:45;94139.50;;;-0.08;100.00
26978;BME280;56314;48.088;11.642;2022-12-10T06:25:10;94129.19;;;-0.08;100.00
26978;BME280;56314;48.088;11.642;2022-12-10T06:27:35;94134.97;;;-0.19;100.00
26978;BME280;56314;48.088;11.642;2022-12-10T06:30:01;94125.72;;;-0.23;100.00
26978;BME280;56314;48.088;11.642;2022-12-10T06:32:26;94136.44;;;-0.15;100.00
26978;BME280;56314;48.088;11.642;2022-12-10T06:34:52;94134.28;;;-0.23;100.00
26978;BME280;56314;48.088;11.642;2022-12-10T06:37:17;94129.69;;;-0.18;100.00
26978;BME280;56314;48.088;11.642;2022-12-10T06:39:42;94140.78;;;-0.16;100.00
26978;BME280;56314;48.088;11.642;2022-12-10T06:42:08;94133.03;;;-0.16;100.00
26978;BME280;56314;48.088;11.642;2022-12-10T06:44:33;94130.72;;;-0.20;100.00
26978;BME280;56314;48.088;11.642;2022-12-10T06:46:59;94133.09;;;-0.17;100.00
26978;BME280;56314;48.088;11.642;2022-12-10T06:49:24;94135.94;;;-0.22;100.00
26978;BME280;56314;48.088;11.642;2022-12-10T06:51:49;94132.28;;;-0.18;100.00
26978;BME280;56314;48.088;11.642;2022-12-10T06:54:15;94145.03;;;-0.14;100.00
26978;BME280;56314;48.088;11.642;2022-12-10T06:56:40;94142.88;;;-0.22;100.00
26978;BME280;56314;48.088;11.642;2022-12-10T06:59:06;94143.63;;;-0.20;100.00
26978;BME280;56314;48.088;11.642;2022-12-10T07:01:32;94145.50;;;-0.24;100.00
26978;BME280;56314;48.088;11.642;2022-12-10T07:03:57;94143.13;;;-0.27;100.00
26978;BME280;56314;48.088;11.642;2022-12-10T07:06:24;94134.38;;;-0.24;100.00
26978;BME280;56314;48.088;11.642;2022-12-10T07:08:50;94140.44;;;-0.25;100.00
26978;BME280;56314;48.088;11.642;2022-12-10T07:11:19;94143.78;;;-0.23;100.00
26978;BME280;56314;48.088;11.642;2022-12-10T07:13:44;94144.03;;;-0.28;100.00
26978;BME280;56314;48.088;11.642;2022-12-10T07:16:39;94145.59;;;-0.25;100.00
26978;BME280;56314;48.088;11.642;2022-12-10T07:19:05;94146.34;;;-0.23;100.00
26978;BME280;56314;48.088;11.642;2022-12-10T07:21:33;94148.19;;;-0.25;100.00
26978;BME280;56314;48.088;11.642;2022-12-10T07:24:04;94139.53;;;-0.24;100.00
26978;BME280;56314;48.088;11.642;2022-12-10T07:26:33;94145.34;;;-0.21;100.00
26978;BME280;56314;48.088;11.642;2022-12-10T07:29:00;94135.94;;;-0.22;100.00
26978;BME280;56314;48.088;11.642;2022-12-10T07:31:26;94131.38;;;-0.17;100.00
26978;BME280;56314;48.088;11.642;2022-12-10T07:33:52;94140.41;;;-0.09;100.00
26978;BME280;56314;48.088;11.642;2022-12-10T07:36:19;94146.75;;;-0.15;100.00
26978;BME280;56314;48.088;11.642;2022-12-10T07:38:45;94146.94;;;-0.18;100.00
26978;BME280;56314;48.088;11.642;2022-12-10T07:41:12;94146.25;;;-0.22;100.00
26978;BME280;56314;48.088;11.642;2022-12-10T07:43:40;94144.00;;;-0.12;100.00
26978;BME280;56314;48.088;11.642;2022-12-10T07:46:18;94143.19;;;-0.12;100.00
26978;BME280;56314;48.088;11.642;2022-12-10T07:48:45;94150.84;;;-0.11;100.00
26978;BME280;56314;48.088;11.642;2022-12-10T07:51:12;94154.94;;;-0.07;100.00
26978;BME280;56314;48.088;11.642;2022-12-10T07:53:37;94156.91;;;0.04;100.00
26978;BME280;56314;48.088;11.642;2022-12-10T07:56:03;94139.94;;;0.00;100.00
26978;BME280;56314;48.088;11.642;2022-12-10T07:58:29;94140.75;;;0.01;100.00
26978;BME280;56314;48.088;11.642;2022-12-10T08:00:54;94133.59;;;0.06;100.00
26978;BME280;56314;48.088;11.642;2022-12-10T08:03:19;94138.34;;;-0.03;100.00
26978;BME280;56314;48.088;11.642;2022-12-10T08:05:45;94147.69;;;0.00;100.00
26978;BME280;56314;48.088;11.642;2022-12-10T08:08:10;94146.41;;;0.07;100.00
26978;BME280;56314;48.088;11.642;2022-12-10T08:10:36;94148.63;;;0.13;100.00
26978;BME280;56314;48.088;11.642;2022-12-10T08:13:03;94149.25;;;0.03;100.00
26978;BME280;56314;48.088;11.642;2022-12-10T08:15:29;94153.81;;;-0.03;100.00
26978;BME280;56314;48.088;11.642;2022-12-10T08:17:55;94152.09;;;-0.02;100.00
26978;BME280;56314;48.088;11.642;2022-12-10T08:20:21;94153.91;;;-0.04;100.00
26978;BME280;56314;48.088;11.642;2022-12-10T08:22:48;94153.75;;;-0.01;100.00
26978;BME280;56314;48.088;11.642;2022-12-10T08:25:13;94157.06;;;0.01;100.00
26978;BME280;56314;48.088;11.642;2022-12-10T08:27:39;94150.91;;;0.04;100.00
26978;BME280;56314;48.088;11.642;2022-12-10T08:30:04;94163.88;;;0.02;100.00
26978;BME280;56314;48.088;11.642;2022-12-10T08:32:30;94161.50;;;-0.01;100.00
26978;BME280;56314;48.088;11.642;2022-12-10T08:34:55;94148.34;;;0.04;100.00
26978;BME280;56314;48.088;11.642;2022-12-10T08:37:21;94151.13;;;0.15;100.00
26978;BME280;56314;48.088;11.642;2022-12-10T08:39:46;94148.69;;;0.28;100.00
26978;BME280;56314;48.088;11.642;2022-12-10T08:42:11;94157.09;;;0.32;100.00
26978;BME280;56314;48.088;11.642;2022-12-10T08:44:38;94158.47;;;0.37;100.00
26978;BME280;56314;48.088;11.642;2022-12-10T08:47:04;94156.75;;;0.38;99.76
26978;BME280;56314;48.088;11.642;2022-12-10T08:49:29;94165.25;;;0.40;99.69
26978;BME280;56314;48.088;11.642;2022-12-10T08:51:55;94170.25;;;0.27;98.82
26978;BME280;56314;48.088;11.642;2022-12-10T08:54:20;94174.19;;;0.18;99.41
26978;BME280;56314;48.088;11.642;2022-12-10T08:56:45;94172.84;;;0.27;99.52
26978;BME280;56314;48.088;11.642;2022-12-10T08:59:11;94161.53;;;0.29;100.00
26978;BME280;56314;48.088;11.642;2022-12-10T09:01:36;94171.88;;;0.44;100.00
26978;BME280;56314;48.088;11.642;2022-12-10T09:04:01;94166.00;;;0.42;99.89
26978;BME280;56314;48.088;11.642;2022-12-10T09:06:27;94170.22;;;0.43;99.11
26978;BME280;56314;48.088;11.642;2022-12-10T09:08:53;94172.56;;;0.48;98.81
26978;BME280;56314;48.088;11.642;2022-12-10T09:11:20;94177.91;;;0.44;99.07
26978;BME280;56314;48.088;11.642;2022-12-10T09:13:46;94182.31;;;0.42;99.19
26978;BME280;56314;48.088;11.642;2022-12-10T09:16:12;94192.75;;;0.41;99.40
26978;BME280;56314;48.088;11.642;2022-12-10T09:18:37;94189.25;;;0.42;98.62
26978;BME280;56314;48.088;11.642;2022-12-10T09:21:08;94189.75;;;0.33;98.27
26978;BME280;56314;48.088;11.642;2022-12-10T09:23:34;94195.91;;;0.30;99.66
26978;BME280;56314;48.088;11.642;2022-12-10T09:25:59;94194.25;;;0.29;100.00
26978;BME280;56314;48.088;11.642;2022-12-10T09:28:24;94198.75;;;0.25;100.00
26978;BME280;56314;48.088;11.642;2022-12-10T09:30:58;94195.44;;;0.23;100.00
26978;BME280;56314;48.088;11.642;2022-12-10T09:33:24;94196.34;;;0.22;100.00
26978;BME280;56314;48.088;11.642;2022-12-10T09:35:49;94191.00;;;0.25;100.00
26978;BME280;56314;48.088;11.642;2022-12-10T09:38:15;94197.59;;;0.31;100.00
26978;BME280;56314;48.088;11.642;2022-12-10T09:40:45;94185.75;;;0.27;100.00
26978;BME280;56314;48.088;11.642;2022-12-10T09:43:19;94197.19;;;0.23;100.00
26978;BME280;56314;48.088;11.642;2022-12-10T09:46:25;94189.59;;;0.20;100.00
26978;BME280;56314;48.088;11.642;2022-12-10T09:48:59;94192.94;;;0.22;100.00
26978;BME280;56314;48.088;11.642;2022-12-10T09:51:31;94191.75;;;0.27;100.00
26978;BME280;56314;48.088;11.642;2022-12-10T09:54:02;94198.50;;;0.30;100.00
26978;BME280;56314;48.088;11.642;2022-12-10T09:56:34;94192.59;;;0.28;99.27
26978;BME280;56314;48.088;11.642;2022-12-10T09:59:15;94196.50;;;0.19;99.62
26978;BME280;56314;48.088;11.642;2022-12-10T10:01:42;94190.41;;;0.20;100.00
26978;BME280;56314;48.088;11.642;2022-12-10T10:04:08;94182.88;;;0.17;100.00
26978;BME280;56314;48.088;11.642;2022-12-10T10:06:34;94188.94;;;0.16;99.81
26978;BME280;56314;48.088;11.642;2022-12-10T10:09:01;94190.84;;;0.12;100.00
26978;BME280;56314;48.088;11.642;2022-12-10T10:11:31;94195.09;;;0.13;100.00
26978;BME280;56314;48.088;11.642;2022-12-10T10:16:55;94190.69;;;0.15;100.00
26978;BME280;56314;48.088;11.642;2022-12-10T10:19:33;94187.84;;;0.20;100.00
26978;BME280;56314;48.088;11.642;2022-12-10T10:22:00;94175.78;;;0.21;100.00
26978;BME280;56314;48.088;11.642;2022-12-10T10:24:39;94181.50;;;0.26;100.00
26978;BME280;56314;48.088;11.642;2022-12-10T10:27:20;94180.78;;;0.24;100.00
26978;BME280;56314;48.088;11.642;2022-12-10T10:29:52;94182.25;;;0.28;99.07
26978;BME280;56314;48.088;11.642;2022-12-10T10:35:06;94181.22;;;0.16;100.00
26978;BME280;56314;48.088;11.642;2022-12-10T10:37:40;94193.25;;;0.15;100.00
26978;BME280;56314;48.088;11.642;2022-12-10T10:40:12;94189.44;;;0.23;100.00
26978;BME280;56314;48.088;11.642;2022-12-10T10:42:46;94181.94;;;0.18;100.00
26978;BME280;56314;48.088;11.642;2022-12-10T10:48:16;94172.03;;;0.26;100.00
26978;BME280;56314;48.088;11.642;2022-12-10T10:50:52;94175.84;;;0.35;100.00
26978;BME280;56314;48.088;11.642;2022-12-10T10:53:32;94175.31;;;0.44;99.45
26978;BME280;56314;48.088;11.642;2022-12-10T10:56:10;94174.66;;;0.41;98.92
26978;BME280;56314;48.088;11.642;2022-12-10T10:58:47;94176.22;;;0.43;99.41
26978;BME280;56314;48.088;11.642;2022-12-10T11:01:13;94175.31;;;0.44;98.77
26978;BME280;56314;48.088;11.642;2022-12-10T11:03:46;94166.66;;;0.45;99.40
26978;BME280;56314;48.088;11.642;2022-12-10T11:06:12;94158.97;;;0.44;98.94
26978;BME280;56314;48.088;11.642;2022-12-10T11:08:38;94158.91;;;0.45;99.55
26978;BME280;56314;48.088;11.642;2022-12-10T11:11:11;94159.66;;;0.48;99.71
26978;BME280;56314;48.088;11.642;2022-12-10T11:13:37;94164.53;;;0.52;100.00
26978;BME280;56314;48.088;11.642;2022-12-10T11:18:42;94166.00;;;0.56;100.00
26978;BME280;56314;48.088;11.642;2022-12-10T11:23:41;94157.34;;;0.57;99.44
26978;BME280;56314;48.088;11.642;2022-12-10T11:37:37;94160.78;;;0.58;99.35
26978;BME280;56314;48.088;11.642;2022-12-10T11:40:26;94159.84;;;0.59;99.29
26978;BME280;56314;48.088;11.642;2022-12-10T11:46:02;94155.13;;;0.51;100.00
26978;BME280;56314;48.088;11.642;2022-12-10T11:51:19;94154.13;;;0.54;100.00
26978;BME280;56314;48.088;11.642;2022-12-10T11:54:14;94150.72;;;0.68;100.00
26978;BME280;56314;48.088;11.642;2022-12-10T11:56:48;94142.63;;;0.74;98.44
26978;BME280;56314;48.088;11.642;2022-12-10T11:59:28;94153.31;;;0.68;98.68
26978;BME280;56314;48.088;11.642;2022-12-10T12:08:03;94146.47;;;0.67;98.88
26978;BME280;56314;48.088;11.642;2022-12-10T12:13:28;94162.25;;;0.62;99.23
26978;BME280;56314;48.088;11.642;2022-12-10T12:16:01;94164.75;;;0.64;99.52
26978;BME280;56314;48.088;11.642;2022-12-10T12:18:40;94168.25;;;0.63;100.00
26978;BME280;56314;48.088;11.642;2022-12-10T12:21:10;94170.44;;;0.54;100.00
26978;BME280;56314;48.088;11.642;2022-12-10T12:26:13;94176.34;;;0.56;100.00
26978;BME280;56314;48.088;11.642;2022-12-10T12:28:51;94172.38;;;0.51;100.00
26978;BME280;56314;48.088;11.642;2022-12-10T12:31:21;94170.78;;;0.48;100.00
26978;BME280;56314;48.088;11.642;2022-12-10T12:33:55;94181.22;;;0.47;100.00
26978;BME280;56314;48.088;11.642;2022-12-10T12:36:27;94179.03;;;0.55;100.00
26978;BME280;56314;48.088;11.642;2022-12-10T12:41:55;94184.28;;;0.53;100.00
26978;BME280;56314;48.088;11.642;2022-12-10T12:53:18;94200.34;;;0.58;100.00
26978;BME280;56314;48.088;11.642;2022-12-10T13:00:59;94199.69;;;0.55;100.00
26978;BME280;56314;48.088;11.642;2022-12-10T13:03:36;94196.09;;;0.57;100.00
26978;BME280;56314;48.088;11.642;2022-12-10T13:06:25;94197.44;;;0.49;100.00
26978;BME280;56314;48.088;11.642;2022-12-10T13:24:19;94218.22;;;0.47;100.00
26978;BME280;56314;48.088;11.642;2022-12-10T13:32:22;94233.88;;;0.44;100.00
26978;BME280;56314;48.088;11.642;2022-12-10T13:37:36;94240.28;;;0.53;100.00
26978;BME280;56314;48.088;11.642;2022-12-10T13:42:35;94243.13;;;0.48;100.00
26978;BME280;56314;48.088;11.642;2022-12-10T13:47:53;94250.97;;;0.47;100.00
26978;BME280;56314;48.088;11.642;2022-12-10T13:53:03;94262.78;;;0.51;100.00
26978;BME280;56314;48.088;11.642;2022-12-10T13:55:48;94264.97;;;0.42;100.00
26978;BME280;56314;48.088;11.642;2022-12-10T14:01:12;94271.97;;;0.40;100.00
26978;BME280;56314;48.088;11.642;2022-12-10T14:06:34;94268.47;;;0.41;100.00
26978;BME280;56314;48.088;11.642;2022-12-10T14:09:18;94272.63;;;0.28;100.00
26978;BME280;56314;48.088;11.642;2022-12-10T14:12:14;94273.28;;;0.32;100.00
26978;BME280;56314;48.088;11.642;2022-12-10T14:14:56;94281.22;;;0.28;100.00
26978;BME280;56314;48.088;11.642;2022-12-10T14:17:32;94285.53;;;0.28;100.00
26978;BME280;56314;48.088;11.642;2022-12-10T14:19:58;94285.38;;;0.31;100.00
26978;BME280;56314;48.088;11.642;2022-12-10T14:22:38;94285.63;;;0.26;100.00
26978;BME280;56314;48.088;11.642;2022-12-10T14:25:13;94295.88;;;0.28;100.00
26978;BME280;56314;48.088;11.642;2022-12-10T14:27:38;94290.97;;;0.23;100.00
26978;BME280;56314;48.088;11.642;2022-12-10T14:30:19;94291.56;;;0.28;100.00
26978;BME280;56314;48.088;11.642;2022-12-10T14:32:46;94298.88;;;0.20;100.00
26978;BME280;56314;48.088;11.642;2022-12-10T14:35:19;94305.03;;;0.18;100.00
26978;BME280;56314;48.088;11.642;2022-12-10T14:37:47;94307.78;;;0.14;100.00
26978;BME280;56314;48.088;11.642;2022-12-10T14:40:23;94305.28;;;0.13;100.00
26978;BME280;56314;48.088;11.642;2022-12-10T14:42:50;94313.78;;;0.15;100.00
26978;BME280;56314;48.088;11.642;2022-12-10T14:45:18;94314.69;;;0.14;100.00
26978;BME280;56314;48.088;11.642;2022-12-10T14:47:43;94317.94;;;0.18;100.00